createdAt,value
2018-11-22T00:00:08.348Z,49
2018-11-22T00:00:58.344Z,49.1
2018-11-22T00:01:48.582Z,49
2018-11-22T00:02:38.602Z,49
2018-11-22T00:03:29.166Z,49
2018-11-22T00:04:19.451Z,49
2018-11-22T00:05:08.927Z,49
2018-11-22T00:05:59.540Z,48.9
2018-11-22T00:06:48.764Z,48.9
2018-11-22T00:25:03.938Z,48.8
2018-11-22T00:25:53.897Z,48.8
2018-11-22T00:26:43.740Z,48.8
2018-11-22T00:27:34.032Z,48.8
2018-11-22T00:28:23.060Z,48.8
2018-11-22T00:29:13.225Z,48.8
2018-11-22T00:30:04.279Z,48.8
2018-11-22T00:30:54.037Z,48.8
2018-11-22T00:31:44.060Z,48.8
2018-11-22T00:32:33.461Z,48.8
2018-11-22T00:33:24.387Z,48.8
2018-11-22T00:34:14.142Z,48.8
2018-11-22T00:35:04.025Z,48.8
2018-11-22T00:35:54.670Z,48.8
2018-11-22T00:36:44.012Z,48.8
2018-11-22T00:37:34.065Z,48.8
2018-11-22T00:38:24.459Z,48.8
2018-11-22T00:39:14.587Z,48.7
2018-11-22T00:40:04.817Z,48.7
2018-11-22T00:40:54.357Z,48.7
2018-11-22T00:41:44.399Z,48.7
2018-11-22T00:42:34.820Z,48.7
2018-11-22T00:43:24.309Z,48.7
2018-11-22T00:44:14.545Z,48.7
2018-11-22T00:45:04.982Z,48.7
2018-11-22T00:45:55.246Z,48.7
2018-11-22T00:46:45.004Z,48.6
2018-11-22T00:47:34.896Z,48.7
2018-11-22T00:48:24.441Z,48.6
2018-11-22T00:49:15.556Z,48.6
2018-11-22T00:50:04.766Z,48.6
2018-11-22T00:50:55.576Z,48.6
2018-11-22T00:51:45.496Z,48.6
2018-11-22T00:52:34.931Z,48.6
2018-11-22T00:53:25.299Z,48.6
2018-11-22T00:54:15.543Z,48.6
2018-11-22T00:55:05.606Z,48.6
2018-11-22T00:55:55.941Z,48.6
2018-11-22T00:56:45.453Z,48.6
2018-11-22T00:57:36.066Z,48.6
2018-11-22T00:58:25.813Z,48.6
2018-11-22T00:59:15.242Z,48.6
2018-11-22T01:00:05.445Z,48.6
2018-11-22T01:00:56.728Z,48.6
2018-11-22T01:01:46.161Z,48.6
2018-11-22T01:02:35.435Z,48.6
2018-11-22T01:03:25.708Z,48.6
2018-11-22T01:04:16.112Z,48.5
2018-11-22T01:05:06.091Z,48.5
2018-11-22T01:05:56.937Z,48.5
2018-11-22T01:06:46.205Z,48.5
2018-11-22T01:07:36.215Z,48.5
2018-11-22T01:08:26.564Z,48.5
2018-11-22T01:09:16.588Z,48.5
2018-11-22T01:10:06.433Z,48.5
2018-11-22T01:10:56.771Z,48.5
2018-11-22T01:11:46.472Z,48.5
2018-11-22T01:12:37.153Z,48.5
2018-11-22T01:13:27.155Z,48.4
2018-11-22T01:14:16.670Z,48.4
2018-11-22T01:15:07.290Z,48.4
2018-11-22T01:15:57.332Z,48.4
2018-11-22T01:16:47.790Z,48.4
2018-11-22T01:17:37.715Z,48.4
2018-11-22T01:18:27.263Z,48.4
2018-11-22T01:19:17.011Z,48.4
2018-11-22T01:20:07.440Z,48.4
2018-11-22T01:20:57.914Z,48.4
2018-11-22T01:21:47.491Z,48.4
2018-11-22T01:22:37.910Z,48.4
2018-11-22T01:23:26.921Z,48.4
2018-11-22T01:24:17.444Z,48.4
2018-11-22T01:25:07.694Z,48.4
2018-11-22T01:25:58.090Z,48.3
2018-11-22T01:26:47.954Z,48.3
2018-11-22T01:27:37.598Z,48.4
2018-11-22T01:28:27.939Z,48.4
2018-11-22T01:29:18.263Z,48.3
2018-11-22T01:30:08.078Z,48.3
2018-11-22T01:30:57.519Z,48.3
2018-11-22T01:31:47.753Z,48.3
2018-11-22T01:32:38.261Z,48.3
2018-11-22T01:33:28.084Z,48.3
2018-11-22T01:34:18.046Z,48.3
2018-11-22T01:35:07.926Z,48.3
2018-11-22T01:35:58.972Z,48.3
2018-11-22T01:36:49.011Z,48.3
2018-11-22T01:37:38.823Z,48.3
2018-11-22T01:38:28.928Z,48.3
2018-11-22T01:39:18.376Z,48.3
2018-11-22T01:40:07.781Z,48.3
2018-11-22T01:40:59.426Z,48.3
2018-11-22T01:41:49.445Z,48.3
2018-11-22T01:42:39.195Z,48.3
2018-11-22T01:43:29.261Z,48.3
2018-11-22T01:44:19.085Z,48.3
2018-11-22T01:45:09.100Z,48.2
2018-11-22T01:45:59.155Z,48.2
2018-11-22T01:46:49.345Z,48.2
2018-11-22T01:47:39.296Z,48.2
2018-11-22T01:48:29.095Z,48.2
2018-11-22T01:49:19.673Z,48.2
2018-11-22T01:50:09.178Z,48.2
2018-11-22T01:50:59.305Z,48.1
2018-11-22T01:51:49.384Z,48.2
2018-11-22T01:52:39.465Z,48.1
2018-11-22T01:53:29.668Z,48.2
2018-11-22T01:54:20.022Z,48.1
2018-11-22T01:55:09.835Z,48.1
2018-11-22T01:56:00.147Z,48.1
2018-11-22T01:56:50.007Z,48.1
2018-11-22T01:57:39.814Z,48.1
2018-11-22T01:58:29.187Z,48.1
2018-11-22T01:59:20.657Z,48.1
2018-11-22T02:00:10.167Z,48.1
2018-11-22T02:01:00.786Z,48.1
2018-11-22T02:01:50.027Z,48.1
2018-11-22T02:02:40.607Z,48.1
2018-11-22T02:03:30.747Z,48.1
2018-11-22T02:04:20.696Z,48.1
2018-11-22T02:05:09.618Z,48.1
2018-11-22T02:06:00.340Z,48.1
2018-11-22T02:06:50.349Z,48.1
2018-11-22T02:07:40.961Z,48.1
2018-11-22T02:08:31.304Z,48.1
2018-11-22T02:09:20.776Z,48
2018-11-22T02:10:10.181Z,48
2018-11-22T02:11:00.634Z,48
2018-11-22T02:11:50.986Z,48
2018-11-22T02:12:41.604Z,48
2018-11-22T02:13:31.389Z,48
2018-11-22T02:14:21.259Z,48
2018-11-22T02:15:10.894Z,48
2018-11-22T02:16:00.969Z,48
2018-11-22T02:16:50.830Z,47.9
2018-11-22T02:17:42.213Z,48
2018-11-22T02:18:32.101Z,48
2018-11-22T02:19:20.808Z,47.9
2018-11-22T02:20:11.253Z,47.9
2018-11-22T02:21:01.891Z,47.9
2018-11-22T02:21:51.188Z,47.9
2018-11-22T02:22:42.066Z,47.9
2018-11-22T02:23:32.423Z,47.9
2018-11-22T02:24:21.491Z,47.9
2018-11-22T02:25:11.618Z,47.9
2018-11-22T02:26:01.728Z,47.9
2018-11-22T02:26:51.838Z,47.9
2018-11-22T02:27:41.830Z,47.9
2018-11-22T02:28:32.372Z,47.9
2018-11-22T02:29:21.693Z,47.9
2018-11-22T02:30:12.553Z,47.9
2018-11-22T02:31:02.600Z,47.9
2018-11-22T02:31:52.765Z,47.9
2018-11-22T02:32:42.710Z,47.9
2018-11-22T02:33:33.043Z,47.9
2018-11-22T02:34:22.373Z,47.9
2018-11-22T02:35:11.525Z,48.1
2018-11-22T02:36:02.375Z,48.2
2018-11-22T02:36:53.015Z,48.4
2018-11-22T02:37:42.472Z,48.6
2018-11-22T02:38:32.867Z,48.8
2018-11-22T02:39:22.645Z,49
2018-11-22T02:40:11.967Z,49.2
2018-11-22T02:41:03.087Z,49.4
2018-11-22T02:41:52.582Z,49.7
2018-11-22T02:42:42.879Z,49.9
2018-11-22T02:43:33.155Z,50.2
2018-11-22T02:44:23.536Z,50.4
2018-11-22T02:45:13.072Z,50.7
2018-11-22T02:46:03.165Z,50.9
2018-11-22T02:46:52.914Z,51.2
2018-11-22T02:47:42.500Z,51.4
2018-11-22T02:48:33.794Z,51.7
2018-11-22T02:50:13.469Z,52.2
2018-11-22T02:51:03.712Z,52.4
2018-11-22T02:51:54.064Z,52.7
2018-11-22T02:52:43.363Z,52.9
2018-11-22T02:53:34.070Z,53.2
2018-11-22T02:54:23.949Z,53.4
2018-11-22T02:55:13.989Z,53.7
2018-11-22T02:56:03.746Z,53.9
2018-11-22T02:56:53.842Z,54.2
2018-11-22T02:57:44.771Z,54.4
2018-11-22T02:58:34.536Z,54.7
2018-11-22T02:59:24.269Z,54.9
2018-11-22T03:00:14.619Z,55.1
2018-11-22T03:01:03.844Z,55.4
2018-11-22T03:01:54.701Z,55.6
2018-11-22T03:02:43.957Z,55.9
2018-11-22T03:03:34.581Z,56.1
2018-11-22T03:04:23.995Z,56.3
2018-11-22T03:05:15.223Z,56.6
2018-11-22T03:06:04.173Z,56.9
2018-11-22T03:06:54.500Z,57.1
2018-11-22T03:07:45.195Z,57.3
2018-11-22T03:08:34.964Z,57.6
2018-11-22T03:09:25.430Z,57.8
2018-11-22T03:10:13.943Z,58.1
2018-11-22T03:11:05.940Z,58.3
2018-11-22T03:11:54.955Z,58.5
2018-11-22T03:12:46.733Z,58.8
2018-11-22T03:13:34.545Z,59
2018-11-22T03:14:24.875Z,59.2
2018-11-22T03:15:15.125Z,59.4
2018-11-22T03:16:06.131Z,59.7
2018-11-22T03:16:55.503Z,59.9
2018-11-22T03:17:44.825Z,60
2018-11-22T03:18:35.650Z,60.1
2018-11-22T03:19:26.514Z,60.3
2018-11-22T03:20:15.982Z,60.6
2018-11-22T03:21:06.063Z,60.6
2018-11-22T03:21:54.997Z,60.7
2018-11-22T03:22:46.167Z,60.9
2018-11-22T03:23:35.777Z,61.1
2018-11-22T03:24:26.224Z,61.2
2018-11-22T03:25:15.852Z,61.3
2018-11-22T03:26:06.774Z,61.4
2018-11-22T03:26:56.489Z,61.6
2018-11-22T03:27:46.564Z,61.8
2018-11-22T03:28:35.825Z,61.8
2018-11-22T03:29:26.699Z,61.9
2018-11-22T03:30:16.531Z,62.1
2018-11-22T03:31:06.554Z,62.2
2018-11-22T03:31:56.542Z,62.3
2018-11-22T03:32:47.245Z,62.4
2018-11-22T03:33:35.993Z,62.6
2018-11-22T03:34:26.827Z,62.6
2018-11-22T03:35:16.896Z,62.7
2018-11-22T03:36:06.296Z,62.7
2018-11-22T03:36:56.704Z,62.8
2018-11-22T03:37:46.441Z,62.8
2018-11-22T03:38:37.002Z,62.9
2018-11-22T03:39:27.469Z,62.9
2018-11-22T03:40:16.911Z,62.9
2018-11-22T03:41:07.732Z,62.9
2018-11-22T03:41:57.580Z,62.9
2018-11-22T03:42:47.291Z,62.9
2018-11-22T03:43:36.978Z,62.9
2018-11-22T03:44:27.691Z,62.9
2018-11-22T03:45:16.951Z,62.9
2018-11-22T03:46:07.328Z,62.9
2018-11-22T03:46:57.901Z,62.9
2018-11-22T03:47:47.113Z,62.9
2018-11-22T03:48:38.003Z,62.9
2018-11-22T03:49:27.280Z,62.9
2018-11-22T03:50:18.175Z,62.9
2018-11-22T03:51:07.488Z,62.8
2018-11-22T03:51:58.510Z,62.8
2018-11-22T03:52:48.580Z,62.8
2018-11-22T03:53:37.886Z,62.8
2018-11-22T03:54:28.120Z,62.8
2018-11-22T03:55:19.009Z,62.8
2018-11-22T03:56:08.374Z,62.8
2018-11-22T03:56:57.713Z,62.8
2018-11-22T03:57:48.708Z,62.8
2018-11-22T03:58:38.439Z,62.8
2018-11-22T03:59:28.472Z,62.8
2018-11-22T04:00:18.492Z,62.8
2018-11-22T04:01:08.637Z,62.8
2018-11-22T04:01:59.258Z,62.8
2018-11-22T04:02:49.560Z,62.8
2018-11-22T04:03:38.307Z,62.8
2018-11-22T04:04:28.801Z,62.8
2018-11-22T04:05:18.974Z,62.7
2018-11-22T04:06:09.158Z,62.7
2018-11-22T04:06:59.039Z,62.7
2018-11-22T04:07:48.819Z,62.6
2018-11-22T04:08:39.122Z,62.7
2018-11-22T04:09:28.892Z,62.6
2018-11-22T04:10:19.085Z,62.6
2018-11-22T04:11:08.699Z,62.6
2018-11-22T04:11:59.634Z,62.6
2018-11-22T04:12:49.043Z,62.6
2018-11-22T04:13:39.741Z,62.6
2018-11-22T04:14:29.641Z,62.6
2018-11-22T04:15:19.851Z,62.6
2018-11-22T04:16:10.722Z,62.6
2018-11-22T04:17:00.344Z,62.6
2018-11-22T04:17:50.328Z,62.6
2018-11-22T04:18:39.318Z,62.6
2018-11-22T04:19:29.878Z,62.5
2018-11-22T04:20:19.382Z,62.5
2018-11-22T04:21:10.483Z,62.5
2018-11-22T04:21:59.766Z,62.5
2018-11-22T04:22:49.973Z,62.5
2018-11-22T04:23:39.959Z,62.5
2018-11-22T04:24:29.738Z,62.5
2018-11-22T04:25:20.483Z,62.4
2018-11-22T04:26:09.813Z,62.4
2018-11-22T04:27:01.677Z,62.4
2018-11-22T04:27:50.493Z,62.4
2018-11-22T04:28:40.020Z,62.4
2018-11-22T04:29:30.833Z,62.4
2018-11-22T04:30:20.961Z,62.4
2018-11-22T04:31:09.982Z,62.4
2018-11-22T04:32:00.221Z,62.4
2018-11-22T04:32:51.117Z,62.4
2018-11-22T04:33:41.158Z,62.4
2018-11-22T04:34:30.724Z,62.4
2018-11-22T04:35:20.772Z,62.4
2018-11-22T04:36:11.652Z,62.4
2018-11-22T04:37:01.675Z,62.4
2018-11-22T04:54:20.534Z,62.1
2018-11-22T04:55:10.079Z,62.2
2018-11-22T04:56:00.698Z,62.1
2018-11-22T04:56:50.182Z,62.1
2018-11-22T04:57:40.794Z,62.1
2018-11-22T04:58:30.599Z,62.1
2018-11-22T04:59:20.881Z,62.1
2018-11-22T05:00:10.908Z,62.1
2018-11-22T05:01:00.499Z,62.1
2018-11-22T05:01:49.728Z,62.1
2018-11-22T05:02:41.401Z,62.1
2018-11-22T05:03:30.069Z,62.1
2018-11-22T05:04:20.321Z,62.1
2018-11-22T05:05:11.016Z,62.1
2018-11-22T05:06:01.338Z,62.1
2018-11-22T05:06:50.588Z,62.1
2018-11-22T05:07:41.247Z,62.1
2018-11-22T05:08:30.675Z,62
2018-11-22T05:09:21.120Z,62
2018-11-22T05:10:10.957Z,62
2018-11-22T05:11:01.493Z,62
2018-11-22T05:11:50.638Z,62
2018-11-22T05:12:41.216Z,62
2018-11-22T05:13:31.673Z,62
2018-11-22T05:14:20.800Z,61.9
2018-11-22T05:15:10.999Z,61.9
2018-11-22T05:16:01.541Z,61.9
2018-11-22T05:16:51.258Z,61.9
2018-11-22T05:17:41.122Z,61.9
2018-11-22T05:18:31.422Z,61.9
2018-11-22T05:19:21.625Z,61.9
2018-11-22T05:20:11.885Z,61.9
2018-11-22T05:21:02.072Z,61.9
2018-11-22T05:21:51.903Z,61.9
2018-11-22T05:22:42.251Z,61.9
2018-11-22T05:23:32.885Z,61.9
2018-11-22T05:24:21.902Z,61.9
2018-11-22T05:25:11.549Z,61.9
2018-11-22T05:26:02.739Z,61.8
2018-11-22T05:26:52.044Z,61.8
2018-11-22T05:27:41.894Z,61.8
2018-11-22T05:28:31.447Z,61.8
2018-11-22T05:29:22.121Z,61.8
2018-11-22T05:30:12.521Z,61.8
2018-11-22T05:31:02.653Z,61.8
2018-11-22T05:31:53.141Z,61.8
2018-11-22T05:32:42.729Z,61.8
2018-11-22T05:33:32.760Z,61.8
2018-11-22T05:34:22.094Z,61.8
2018-11-22T05:35:12.902Z,61.8
2018-11-22T05:36:03.469Z,61.8
2018-11-22T05:36:52.469Z,61.8
2018-11-22T05:37:42.906Z,61.7
2018-11-22T05:38:33.073Z,61.7
2018-11-22T05:39:23.667Z,61.7
2018-11-22T05:40:13.254Z,61.7
2018-11-22T05:41:03.286Z,61.7
2018-11-22T05:41:53.288Z,61.7
2018-11-22T05:42:43.054Z,61.7
2018-11-22T05:43:33.210Z,61.7
2018-11-22T05:44:23.968Z,61.7
2018-11-22T05:45:13.888Z,61.6
2018-11-22T05:46:04.153Z,61.6
2018-11-22T05:46:53.356Z,61.6
2018-11-22T05:47:43.520Z,61.6
2018-11-22T05:48:33.756Z,61.6
2018-11-22T05:49:23.918Z,61.6
2018-11-22T05:50:13.598Z,61.6
2018-11-22T05:51:03.963Z,61.6
2018-11-22T05:51:53.139Z,61.6
2018-11-22T05:52:44.328Z,61.6
2018-11-22T05:53:33.621Z,61.6
2018-11-22T05:54:24.117Z,61.6
2018-11-22T05:55:14.112Z,61.6
2018-11-22T05:56:03.523Z,61.6
2018-11-22T05:56:54.602Z,61.5
2018-11-22T05:57:44.365Z,61.5
2018-11-22T05:58:34.739Z,61.5
2018-11-22T05:59:24.047Z,61.5
2018-11-22T06:00:14.810Z,61.5
2018-11-22T06:01:04.064Z,61.5
2018-11-22T06:01:54.895Z,61.5
2018-11-22T06:02:45.010Z,61.4
2018-11-22T06:03:34.199Z,61.4
2018-11-22T06:04:24.521Z,61.4
2018-11-22T06:05:14.799Z,61.4
2018-11-22T06:06:05.005Z,61.4
2018-11-22T06:06:54.814Z,61.4
2018-11-22T06:07:44.435Z,61.4
2018-11-22T06:08:35.044Z,61.4
2018-11-22T06:09:25.452Z,61.4
2018-11-22T06:10:15.153Z,61.4
2018-11-22T06:11:05.566Z,61.4
2018-11-22T06:11:55.958Z,61.4
2018-11-22T06:12:45.184Z,61.4
2018-11-22T06:13:35.496Z,61.4
2018-11-22T06:14:25.849Z,61.3
2018-11-22T06:15:14.657Z,61.3
2018-11-22T06:16:05.906Z,61.3
2018-11-22T06:16:56.236Z,61.3
2018-11-22T06:17:45.781Z,61.3
2018-11-22T06:18:35.359Z,61.3
2018-11-22T06:19:26.168Z,61.3
2018-11-22T06:20:16.231Z,61.3
2018-11-22T06:21:06.621Z,61.3
2018-11-22T06:21:56.556Z,61.3
2018-11-22T06:22:45.870Z,61.3
2018-11-22T06:23:36.190Z,61.3
2018-11-22T06:24:26.270Z,61.3
2018-11-22T06:25:15.857Z,61.2
2018-11-22T06:26:05.872Z,61.2
2018-11-22T06:26:56.995Z,61.2
2018-11-22T06:27:46.775Z,61.2
2018-11-22T06:28:36.352Z,61.2
2018-11-22T06:29:26.524Z,61.2
2018-11-22T06:30:16.441Z,61.2
2018-11-22T06:31:09.645Z,61.2
2018-11-22T06:31:57.127Z,61.1
2018-11-22T06:32:46.800Z,61.2
2018-11-22T06:33:36.591Z,61.1
2018-11-22T06:34:26.432Z,61.1
2018-11-22T06:35:16.519Z,61.1
2018-11-22T06:36:07.395Z,61.1
2018-11-22T06:36:56.927Z,61.1
2018-11-22T06:37:46.727Z,61.1
2018-11-22T06:38:37.039Z,61.1
2018-11-22T06:39:27.043Z,61.1
2018-11-22T06:40:17.382Z,61.1
2018-11-22T06:41:07.729Z,61.1
2018-11-22T06:41:57.067Z,61.1
2018-11-22T06:42:46.944Z,61.1
2018-11-22T06:43:38.122Z,61.1
2018-11-22T06:44:27.324Z,61.1
2018-11-22T06:45:17.394Z,61
2018-11-22T06:46:08.054Z,61
2018-11-22T06:46:58.095Z,61
2018-11-22T06:47:47.876Z,61
2018-11-22T06:48:37.241Z,61
2018-11-22T06:49:27.714Z,61
2018-11-22T06:50:18.611Z,61
2018-11-22T06:51:08.193Z,60.9
2018-11-22T06:51:58.249Z,60.9
2018-11-22T06:52:48.826Z,60.9
2018-11-22T06:53:38.083Z,60.9
2018-11-22T06:54:27.745Z,60.9
2018-11-22T06:55:18.514Z,60.9
2018-11-22T06:56:09.051Z,60.9
2018-11-22T06:56:58.902Z,60.9
2018-11-22T06:57:47.949Z,60.9
2018-11-22T06:58:38.988Z,60.9
2018-11-22T06:59:28.785Z,60.9
2018-11-22T07:00:18.593Z,60.9
2018-11-22T07:01:08.283Z,60.9
2018-11-22T07:01:59.238Z,60.8
2018-11-22T07:02:48.340Z,60.8
2018-11-22T07:03:39.048Z,60.8
2018-11-22T07:04:29.023Z,60.8
2018-11-22T07:05:18.825Z,60.8
2018-11-22T07:06:08.628Z,60.8
2018-11-22T07:06:59.582Z,60.8
2018-11-22T07:07:49.057Z,60.8
2018-11-22T07:08:39.280Z,60.8
2018-11-22T07:09:29.107Z,60.8
2018-11-22T07:10:19.430Z,60.8
2018-11-22T07:11:10.052Z,60.8
2018-11-22T07:11:59.642Z,60.8
2018-11-22T07:12:49.986Z,60.8
2018-11-22T07:13:39.650Z,60.7
2018-11-22T07:14:29.813Z,60.7
2018-11-22T07:15:19.076Z,60.7
2018-11-22T07:16:09.526Z,60.7
2018-11-22T07:16:59.907Z,60.7
2018-11-22T07:17:50.027Z,60.7
2018-11-22T07:18:40.030Z,60.7
2018-11-22T07:19:29.762Z,60.7
2018-11-22T07:20:20.097Z,60.6
2018-11-22T07:21:09.912Z,60.6
2018-11-22T07:22:00.033Z,60.6
2018-11-22T07:22:50.598Z,60.6
2018-11-22T07:23:40.672Z,60.6
2018-11-22T07:24:30.425Z,60.6
2018-11-22T07:25:21.059Z,60.6
2018-11-22T07:26:10.495Z,60.6
2018-11-22T07:27:00.986Z,60.6
2018-11-22T07:27:50.454Z,60.6
2018-11-22T07:28:41.039Z,60.6
2018-11-22T07:29:30.759Z,60.6
2018-11-22T07:30:21.104Z,60.6
2018-11-22T07:31:10.853Z,60.6
2018-11-22T07:32:00.863Z,60.6
2018-11-22T07:32:50.751Z,60.5
2018-11-22T07:33:41.563Z,60.5
2018-11-22T07:34:30.523Z,60.5
2018-11-22T07:35:21.226Z,60.5
2018-11-22T07:36:11.003Z,60.5
2018-11-22T07:37:00.970Z,60.5
2018-11-22T07:37:51.902Z,60.5
2018-11-22T07:38:41.745Z,60.4
2018-11-22T07:39:31.258Z,60.4
2018-11-22T07:40:21.318Z,60.4
2018-11-22T07:41:10.783Z,60.4
2018-11-22T07:42:01.652Z,60.4
2018-11-22T07:42:54.288Z,60.4
2018-11-22T07:43:41.453Z,60.4
2018-11-22T07:44:31.895Z,60.4
2018-11-22T07:45:22.428Z,60.4
2018-11-22T07:46:12.003Z,60.4
2018-11-22T07:47:01.708Z,60.4
2018-11-22T07:47:52.357Z,60.4
2018-11-22T07:48:42.390Z,60.4
2018-11-22T07:49:32.252Z,60.4
2018-11-22T07:50:22.092Z,60.3
2018-11-22T07:51:12.827Z,60.3
2018-11-22T07:52:02.275Z,60.3
2018-11-22T07:52:59.485Z,60.3
2018-11-22T07:53:42.285Z,60.3
2018-11-22T07:54:32.397Z,60.3
2018-11-22T07:55:22.135Z,60.3
2018-11-22T07:56:12.427Z,60.3
2018-11-22T07:57:02.940Z,60.3
2018-11-22T07:57:52.497Z,60.3
2018-11-22T07:58:42.877Z,60.3
2018-11-22T07:59:32.619Z,60.3
2018-11-22T08:00:23.196Z,60.3
2018-11-22T08:01:12.979Z,60.3
2018-11-22T08:02:02.899Z,60.2
2018-11-22T08:02:53.047Z,60.2
2018-11-22T08:03:43.594Z,60.2
2018-11-22T08:04:33.111Z,60.2
2018-11-22T08:05:23.261Z,60.2
2018-11-22T08:06:12.621Z,60.2
2018-11-22T08:07:03.334Z,60.2
2018-11-22T08:07:53.394Z,60.1
2018-11-22T08:08:44.259Z,60.1
2018-11-22T08:09:33.114Z,60.1
2018-11-22T08:10:22.991Z,60.1
2018-11-22T08:11:13.935Z,60.1
2018-11-22T08:12:03.203Z,60.1
2018-11-22T08:12:54.744Z,60.1
2018-11-22T08:13:44.139Z,60.1
2018-11-22T08:14:33.990Z,60.1
2018-11-22T08:15:24.343Z,60.1
2018-11-22T08:16:14.315Z,60.1
2018-11-22T08:17:04.178Z,60.1
2018-11-22T08:17:53.723Z,60.1
2018-11-22T08:18:44.496Z,60
2018-11-22T08:19:33.651Z,60.1
2018-11-22T08:20:23.990Z,60
2018-11-22T08:21:13.860Z,60
2018-11-22T08:22:04.736Z,60
2018-11-22T08:22:54.623Z,60
2018-11-22T08:23:44.800Z,60
2018-11-22T08:24:34.893Z,60
2018-11-22T08:25:25.262Z,59.9
2018-11-22T08:26:15.298Z,59.9
2018-11-22T08:27:04.188Z,59.9
2018-11-22T08:27:54.945Z,59.9
2018-11-22T08:28:44.627Z,59.9
2018-11-22T08:29:34.493Z,59.9
2018-11-22T08:30:24.497Z,59.9
2018-11-22T08:31:14.655Z,59.9
2018-11-22T08:32:05.485Z,59.9
2018-11-22T08:32:55.620Z,59.9
2018-11-22T08:33:45.492Z,59.9
2018-11-22T08:34:35.667Z,59.9
2018-11-22T08:35:25.652Z,59.9
2018-11-22T08:36:15.333Z,59.9
2018-11-22T08:37:04.944Z,59.9
2018-11-22T08:42:45.434Z,59.8
2018-11-22T08:43:35.779Z,59.8
2018-11-22T08:44:24.799Z,59.8
2018-11-22T08:45:15.867Z,59.8
2018-11-22T08:46:06.241Z,59.8
2018-11-22T08:46:55.761Z,59.8
2018-11-22T08:47:45.542Z,59.8
2018-11-22T08:48:34.856Z,59.7
2018-11-22T08:49:25.622Z,59.7
2018-11-22T08:50:15.967Z,59.7
2018-11-22T08:51:05.765Z,59.7
2018-11-22T08:51:55.766Z,59.7
2018-11-22T08:52:45.428Z,59.7
2018-11-22T09:08:49.916Z,59.5
2018-11-22T09:09:39.917Z,59.5
2018-11-22T09:10:30.479Z,59.4
2018-11-22T09:11:19.806Z,59.4
2018-11-22T09:12:09.811Z,59.4
2018-11-22T09:12:59.882Z,59.4
2018-11-22T09:13:50.247Z,59.4
2018-11-22T09:14:40.521Z,59.4
2018-11-22T09:15:34.684Z,59.4
2018-11-22T09:16:20.096Z,59.4
2018-11-22T09:17:09.894Z,59.4
2018-11-22T09:18:00.216Z,59.4
2018-11-22T09:18:50.596Z,59.4
2018-11-22T09:19:40.603Z,59.4
2018-11-22T09:20:29.828Z,59.4
2018-11-22T09:21:20.690Z,59.4
2018-11-22T09:22:11.036Z,59.4
2018-11-22T09:22:59.803Z,59.3
2018-11-22T09:23:50.356Z,59.3
2018-11-22T09:24:40.396Z,59.3
2018-11-22T09:25:30.736Z,59.3
2018-11-22T09:26:20.784Z,59.3
2018-11-22T09:27:10.850Z,59.3
2018-11-22T09:28:00.343Z,59.3
2018-11-22T09:28:51.716Z,59.3
2018-11-22T09:29:43.035Z,59.3
2018-11-22T09:30:31.633Z,59.3
2018-11-22T09:31:20.863Z,59.3
2018-11-22T09:32:10.913Z,59.3
2018-11-22T09:33:01.304Z,59.2
2018-11-22T09:33:49.728Z,59.3
2018-11-22T09:34:41.375Z,59.2
2018-11-22T09:35:31.998Z,59.2
2018-11-22T09:36:20.677Z,59.2
2018-11-22T09:37:11.532Z,59.2
2018-11-22T09:38:01.317Z,59.1
2018-11-22T09:38:51.380Z,59.1
2018-11-22T09:39:41.437Z,59.2
2018-11-22T09:40:31.764Z,59.1
2018-11-22T09:41:21.646Z,59.1
2018-11-22T09:42:12.355Z,59.1
2018-11-22T09:43:01.409Z,59.1
2018-11-22T09:43:51.453Z,59.1
2018-11-22T09:44:42.067Z,59.1
2018-11-22T09:45:32.401Z,59.1
2018-11-22T09:46:22.979Z,59.1
2018-11-22T09:47:11.960Z,59.1
2018-11-22T09:48:02.319Z,59.1
2018-11-22T09:48:53.349Z,59.1
2018-11-22T09:49:42.204Z,59.1
2018-11-22T09:50:33.054Z,59
2018-11-22T09:51:23.114Z,59
2018-11-22T09:52:13.119Z,59
2018-11-22T09:53:03.198Z,59
2018-11-22T09:53:52.698Z,59
2018-11-22T09:54:43.361Z,59
2018-11-22T09:55:33.144Z,59
2018-11-22T09:56:23.483Z,59
2018-11-22T09:57:13.526Z,58.9
2018-11-22T09:58:04.350Z,58.9
2018-11-22T09:58:54.798Z,58.9
2018-11-22T09:59:43.459Z,58.9
2018-11-22T10:00:33.456Z,58.9
2018-11-22T10:01:23.536Z,58.9
2018-11-22T10:02:13.025Z,58.9
2018-11-22T10:03:04.513Z,58.9
2018-11-22T10:03:53.183Z,58.9
2018-11-22T10:04:44.921Z,58.9
2018-11-22T10:05:34.513Z,58.9
2018-11-22T10:06:23.600Z,58.9
2018-11-22T10:07:14.203Z,58.9
2018-11-22T10:08:03.703Z,58.9
2018-11-22T10:08:54.285Z,58.8
2018-11-22T10:09:44.058Z,58.8
2018-11-22T10:10:33.900Z,58.8
2018-11-22T10:11:24.235Z,58.8
2018-11-22T10:12:14.333Z,58.8
2018-11-22T10:13:03.503Z,58.8
2018-11-22T10:13:53.832Z,58.8
2018-11-22T10:14:44.457Z,58.8
2018-11-22T10:15:33.931Z,58.8
2018-11-22T10:16:24.050Z,58.8
2018-11-22T10:17:15.373Z,58.8
2018-11-22T10:18:04.443Z,58.8
2018-11-22T10:18:54.727Z,58.8
2018-11-22T10:19:43.193Z,58.8
2018-11-22T10:20:34.559Z,58.8
2018-11-22T10:21:24.949Z,58.7
2018-11-22T10:22:14.737Z,58.7
2018-11-22T10:23:04.492Z,58.7
2018-11-22T10:23:55.807Z,58.7
2018-11-22T10:24:44.855Z,58.6
2018-11-22T10:25:34.621Z,58.7
2018-11-22T10:26:24.702Z,58.6
2018-11-22T10:27:14.750Z,58.6
2018-11-22T10:28:05.096Z,58.6
2018-11-22T10:28:55.191Z,58.6
2018-11-22T10:29:44.984Z,58.6
2018-11-22T10:34:45.876Z,58.5
2018-11-22T10:36:25.118Z,58.5
2018-11-22T10:37:15.761Z,58.5
2018-11-22T10:38:06.888Z,58.5
2018-11-22T10:38:55.307Z,58.5
2018-11-22T10:39:45.874Z,58.5
2018-11-22T10:40:36.238Z,58.5
2018-11-22T10:41:25.716Z,58.5
2018-11-22T10:42:16.570Z,58.5
2018-11-22T10:43:55.924Z,58.4
2018-11-22T10:44:46.257Z,58.4
2018-11-22T10:45:36.290Z,58.4
2018-11-22T10:46:26.625Z,58.4
2018-11-22T10:47:16.413Z,58.4
2018-11-22T10:48:05.923Z,58.4
2018-11-22T10:48:56.261Z,58.4
2018-11-22T10:49:53.541Z,58.4
2018-11-22T10:50:36.378Z,58.4
2018-11-22T10:51:26.988Z,58.4
2018-11-22T10:52:17.377Z,58.4
2018-11-22T10:53:06.837Z,58.3
2018-11-22T10:53:57.423Z,58.4
2018-11-22T10:54:46.927Z,58.3
2018-11-22T10:55:37.258Z,58.3
2018-11-22T10:56:26.776Z,58.3
2018-11-22T10:57:16.843Z,58.3
2018-11-22T10:58:07.180Z,58.3
2018-11-22T10:58:56.679Z,58.3
2018-11-22T10:59:46.442Z,58.3
2018-11-22T11:00:37.394Z,58.3
2018-11-22T11:01:27.669Z,58.3
2018-11-22T11:02:18.138Z,58.3
2018-11-22T11:03:07.777Z,58.3
2018-11-22T11:03:57.571Z,58.2
2018-11-22T11:04:47.882Z,58.3
2018-11-22T11:05:37.732Z,58.2
2018-11-22T11:06:27.782Z,58.2
2018-11-22T11:07:18.536Z,58.2
2018-11-22T11:08:08.137Z,58.2
2018-11-22T11:08:58.476Z,58.2
2018-11-22T11:09:47.479Z,58.1
2018-11-22T11:10:37.249Z,58.1
2018-11-22T11:11:28.381Z,58.1
2018-11-22T11:12:17.599Z,58.1
2018-11-22T11:13:08.410Z,58.1
2018-11-22T11:13:58.257Z,58.1
2018-11-22T11:14:48.374Z,58.1
2018-11-22T11:15:38.386Z,58.1
2018-11-22T11:16:28.721Z,58.1
2018-11-22T11:17:18.224Z,58.1
2018-11-22T11:18:08.834Z,58.1
2018-11-22T11:18:58.646Z,58.1
2018-11-22T11:19:49.004Z,58.1
2018-11-22T11:20:38.199Z,58.1
2018-11-22T11:21:28.803Z,58
2018-11-22T11:22:18.864Z,58
2018-11-22T11:23:08.618Z,58
2018-11-22T11:23:59.239Z,58
2018-11-22T11:24:48.931Z,58
2018-11-22T11:25:39.070Z,58
2018-11-22T11:26:28.951Z,58
2018-11-22T11:27:19.478Z,57.9
2018-11-22T11:28:09.526Z,57.9
2018-11-22T11:28:59.301Z,57.9
2018-11-22T11:29:49.682Z,57.9
2018-11-22T11:30:39.425Z,57.9
2018-11-22T11:31:30.003Z,57.9
2018-11-22T11:32:18.979Z,57.9
2018-11-22T11:33:10.143Z,57.9
2018-11-22T11:34:00.386Z,57.9
2018-11-22T11:34:49.496Z,57.9
2018-11-22T11:35:39.227Z,57.9
2018-11-22T11:36:30.100Z,57.9
2018-11-22T11:37:20.181Z,57.9
2018-11-22T11:38:10.487Z,57.8
2018-11-22T11:38:59.995Z,57.8
2018-11-22T11:39:49.500Z,57.9
2018-11-22T11:40:40.380Z,57.8
2018-11-22T11:41:30.472Z,57.8
2018-11-22T11:42:19.977Z,57.8
2018-11-22T11:43:09.492Z,57.8
2018-11-22T11:44:00.082Z,57.8
2018-11-22T11:49:00.134Z,57.7
2018-11-22T11:49:51.014Z,57.7
2018-11-22T11:50:40.530Z,57.7
2018-11-22T11:51:30.629Z,57.7
2018-11-22T11:52:21.256Z,57.7
2018-11-22T11:53:10.714Z,57.7
2018-11-22T11:54:01.302Z,57.7
2018-11-22T11:54:51.634Z,57.6
2018-11-22T11:55:40.602Z,57.6
2018-11-22T11:56:30.740Z,57.6
2018-11-22T11:57:21.342Z,57.6
2018-11-22T11:58:11.894Z,57.6
2018-11-22T11:59:01.387Z,57.6
2018-11-22T11:59:51.996Z,57.6
2018-11-22T12:00:40.982Z,57.6
2018-11-22T12:01:31.334Z,57.6
2018-11-22T12:02:21.409Z,57.6
2018-11-22T12:03:11.645Z,57.6
2018-11-22T12:04:02.008Z,57.6
2018-11-22T12:04:52.066Z,57.6
2018-11-22T12:05:41.591Z,57.6
2018-11-22T12:06:31.956Z,57.6
2018-11-22T12:07:21.454Z,57.5
2018-11-22T12:08:12.095Z,57.5
2018-11-22T12:09:02.353Z,57.5
2018-11-22T12:09:57.859Z,57.5
2018-11-22T12:10:42.554Z,57.5
2018-11-22T12:11:32.018Z,57.5
2018-11-22T12:12:22.043Z,57.5
2018-11-22T12:13:12.434Z,57.4
2018-11-22T12:14:02.983Z,57.4